Arlington, TN

11:47 AM CDT on April 28, 2015 (GMT -0500)
The Grove at Lakeland | | Change Station
CLOSE
Current Station
Personal Weather Station
Location: Lakeland, TN
Elevation: 354 ft
Nearby Weather Stations
Active Advisory: Flood Advisory

Elev 354 ft 35.26 °N, 89.72 °W | Updated 30 seconds ago

Overcast
Overcast
57.6 °F
Feels Like 57.6 °F
N
1.0
Wind Variable Wind from WNW
Gusts 4.0 mph

Today
High -- | Low -- °F
--% Chance of Precip.
Yesterday
High -- | Low -- °F
Precip. -- in
6:11 AM 7:42 PM
Waxing Gibbous, 75% visible
Pressure 30.02 in
Visibility 10.0 miles
Clouds Mostly Cloudy 15000 ft
Overcast 25000 ft
Dew Point 48 °F
Humidity 69%
Rainfall 0.00 in
Snow Depth Not available.
UV 3 out of 12
Pollen 5.50 out of 12
Air Quality Not available.
Flu Activity Sporadic
METAR KNQA 281550Z 01009KT 10SM BKN150 OVC250 13/08 A3002

More Conditions Fewer Conditions

Pressure 30.02 in
Visibility 10.0 miles
Clouds Mostly Cloudy 15000 ft
Overcast 25000 ft
Dew Point 48 °F
Humidity 69%
Rainfall 0.00 in
Snow Depth Not available.
UV 3 out of 12
Pollen 5.50 out of 12
Air Quality Not available.
Flu Activity Sporadic
METAR KNQA 281550Z 01009KT 10SM BKN150 OVC250 13/08 A3002

More Conditions Fewer Conditions

10-Day Weather Forecast

Almanac

Astronomy

Apr. 28, 2015 Rise Set
Actual Time
Civil Twilight
Nautical Twilight
Astronomical Twilight
Moon
Length of Visible Light
Length of Day
Tomorrow will be .
, % of the Moon is Illuminated

Today's Extremes

State Highs State Lows

Community

WunderPhotos

Upload Photos

1,817,699 photos uploaded!

WunderBlogs® & News

Nearby

Air Quality

  Air Quality AQ Index Pollutant
Not available.

Snow Depth

Station Depth Elevation

Earthquake Activity

City Distance Mag. Time & Date
Minimum magnitude displayed is 2.5.

Coastal Water Temperatures

Place Temperature

Stations

Nearby Weather Stations

Station Location Temp. Windchill Dew Point Humidity Wind Precip. Elev Updated Type
                   
Flood Advisory
Statement as of 11:17 AM CDT on April 28, 2015

The Flood Advisory is extended for
the Mississippi River at Memphis
* until Wednesday April 29.
* At 11 am Tuesday the stage was 28.2 feet.
* Flood stage is 34.0 feet.
* Forecast... the river will continue to fall.
* At 28.0 feet... in Arkansas, Dacus Lake Road under the I-55 bridge
begins to flood. Water is encroaching on the levee south of Blue
Lake. The Road to island 40 begins to flood.


Lat... Lon 3539 9025 3539 8995 3533 9005 3513 9004
      3491 9008 3491 9041